sensor_id;sensor_type;location;lat;lon;timestamp;temperature;humidity
24011;DHT22;12217;50.792;4.372;2024-03-25T00:02:07;7.80;99.90
24011;DHT22;12217;50.792;4.372;2024-03-25T00:04:33;7.80;99.90
24011;DHT22;12217;50.792;4.372;2024-03-25T00:06:58;7.70;99.90
24011;DHT22;12217;50.792;4.372;2024-03-25T00:09:24;7.70;99.90
24011;DHT22;12217;50.792;4.372;2024-03-25T00:11:50;7.80;99.90
24011;DHT22;12217;50.792;4.372;2024-03-25T00:14:20;7.70;99.90
24011;DHT22;12217;50.792;4.372;2024-03-25T00:16:46;7.70;99.90
24011;DHT22;12217;50.792;4.372;2024-03-25T00:19:12;7.60;99.90
24011;DHT22;12217;50.792;4.372;2024-03-25T00:21:37;7.60;99.90
24011;DHT22;12217;50.792;4.372;2024-03-25T00:24:03;7.60;99.90
24011;DHT22;12217;50.792;4.372;2024-03-25T00:26:29;7.70;99.90
24011;DHT22;12217;50.792;4.372;2024-03-25T00:28:55;7.70;99.90
24011;DHT22;12217;50.792;4.372;2024-03-25T00:31:20;7.70;99.90
24011;DHT22;12217;50.792;4.372;2024-03-25T00:33:46;7.70;99.90
24011;DHT22;12217;50.792;4.372;2024-03-25T00:36:12;7.70;99.90
24011;DHT22;12217;50.792;4.372;2024-03-25T00:38:38;7.60;99.90
24011;DHT22;12217;50.792;4.372;2024-03-25T00:41:04;7.60;99.90
24011;DHT22;12217;50.792;4.372;2024-03-25T00:43:29;7.70;99.90
24011;DHT22;12217;50.792;4.372;2024-03-25T00:45:55;7.60;99.90
24011;DHT22;12217;50.792;4.372;2024-03-25T00:48:24;7.60;99.90
24011;DHT22;12217;50.792;4.372;2024-03-25T00:50:50;7.50;99.90
24011;DHT22;12217;50.792;4.372;2024-03-25T00:53:16;7.60;99.90
24011;DHT22;12217;50.792;4.372;2024-03-25T00:55:41;7.60;99.90
24011;DHT22;12217;50.792;4.372;2024-03-25T00:58:07;7.60;99.90
24011;DHT22;12217;50.792;4.372;2024-03-25T01:00:33;7.50;99.90
24011;DHT22;12217;50.792;4.372;2024-03-25T01:02:58;7.50;99.90
24011;DHT22;12217;50.792;4.372;2024-03-25T01:05:24;7.50;99.90
24011;DHT22;12217;50.792;4.372;2024-03-25T01:07:49;7.50;99.90
24011;DHT22;12217;50.792;4.372;2024-03-25T01:10:16;7.50;99.90
24011;DHT22;12217;50.792;4.372;2024-03-25T01:12:42;7.40;99.90
24011;DHT22;12217;50.792;4.372;2024-03-25T01:15:07;7.50;99.90
24011;DHT22;12217;50.792;4.372;2024-03-25T01:17:36;7.50;99.90
24011;DHT22;12217;50.792;4.372;2024-03-25T01:20:01;7.40;99.90
24011;DHT22;12217;50.792;4.372;2024-03-25T01:22:27;7.40;99.90
24011;DHT22;12217;50.792;4.372;2024-03-25T01:24:53;7.40;99.90
24011;DHT22;12217;50.792;4.372;2024-03-25T01:27:19;7.30;99.90
24011;DHT22;12217;50.792;4.372;2024-03-25T01:29:44;7.30;99.90
24011;DHT22;12217;50.792;4.372;2024-03-25T01:32:10;7.40;99.90
24011;DHT22;12217;50.792;4.372;2024-03-25T01:34:35;7.40;99.90
24011;DHT22;12217;50.792;4.372;2024-03-25T01:37:01;7.40;99.90
24011;DHT22;12217;50.792;4.372;2024-03-25T01:39:27;7.40;99.90
24011;DHT22;12217;50.792;4.372;2024-03-25T01:41:52;7.40;99.90
24011;DHT22;12217;50.792;4.372;2024-03-25T01:44:18;7.30;99.90
24011;DHT22;12217;50.792;4.372;2024-03-25T01:46:44;7.30;99.90
24011;DHT22;12217;50.792;4.372;2024-03-25T01:49:10;7.20;99.90
24011;DHT22;12217;50.792;4.372;2024-03-25T01:51:36;7.20;99.90
24011;DHT22;12217;50.792;4.372;2024-03-25T01:54:03;7.10;99.90
24011;DHT22;12217;50.792;4.372;2024-03-25T01:56:33;7.20;99.90
24011;DHT22;12217;50.792;4.372;2024-03-25T01:59:01;7.20;99.90
24011;DHT22;12217;50.792;4.372;2024-03-25T02:01:27;7.10;99.90
24011;DHT22;12217;50.792;4.372;2024-03-25T02:03:55;7.10;99.90
24011;DHT22;12217;50.792;4.372;2024-03-25T02:06:21;7.10;99.90
24011;DHT22;12217;50.792;4.372;2024-03-25T02:08:48;7.20;99.90
24011;DHT22;12217;50.792;4.372;2024-03-25T02:11:14;7.20;99.90
24011;DHT22;12217;50.792;4.372;2024-03-25T02:13:40;7.40;99.90
24011;DHT22;12217;50.792;4.372;2024-03-25T02:16:06;7.40;99.90
24011;DHT22;12217;50.792;4.372;2024-03-25T02:18:32;7.30;99.90
24011;DHT22;12217;50.792;4.372;2024-03-25T02:20:59;7.30;99.90
24011;DHT22;12217;50.792;4.372;2024-03-25T02:23:28;7.20;99.90
24011;DHT22;12217;50.792;4.372;2024-03-25T02:25:54;7.20;99.90
24011;DHT22;12217;50.792;4.372;2024-03-25T02:28:20;7.20;99.90
24011;DHT22;12217;50.792;4.372;2024-03-25T02:30:46;7.20;99.90
24011;DHT22;12217;50.792;4.372;2024-03-25T02:33:11;7.20;99.90
24011;DHT22;12217;50.792;4.372;2024-03-25T02:35:39;7.40;99.90
24011;DHT22;12217;50.792;4.372;2024-03-25T02:38:06;7.40;99.90
24011;DHT22;12217;50.792;4.372;2024-03-25T02:40:32;7.30;99.90
24011;DHT22;12217;50.792;4.372;2024-03-25T02:42:58;7.20;99.90
24011;DHT22;12217;50.792;4.372;2024-03-25T02:45:25;7.10;99.90
24011;DHT22;12217;50.792;4.372;2024-03-25T02:47:51;7.10;99.90
24011;DHT22;12217;50.792;4.372;2024-03-25T02:50:17;7.10;99.90
24011;DHT22;12217;50.792;4.372;2024-03-25T02:52:43;7.20;99.90
24011;DHT22;12217;50.792;4.372;2024-03-25T02:55:08;7.20;99.90
24011;DHT22;12217;50.792;4.372;2024-03-25T02:57:34;7.20;99.90
24011;DHT22;12217;50.792;4.372;2024-03-25T03:00:00;7.30;99.90
24011;DHT22;12217;50.792;4.372;2024-03-25T03:02:25;7.30;99.90
24011;DHT22;12217;50.792;4.372;2024-03-25T03:04:51;7.30;99.90
24011;DHT22;12217;50.792;4.372;2024-03-25T03:07:16;7.30;99.90
24011;DHT22;12217;50.792;4.372;2024-03-25T03:09:43;7.30;99.90
24011;DHT22;12217;50.792;4.372;2024-03-25T03:12:08;7.40;99.90
24011;DHT22;12217;50.792;4.372;2024-03-25T03:14:34;7.50;99.90
24011;DHT22;12217;50.792;4.372;2024-03-25T03:17:00;7.60;99.90
24011;DHT22;12217;50.792;4.372;2024-03-25T03:19:30;7.60;99.90
24011;DHT22;12217;50.792;4.372;2024-03-25T03:21:56;7.70;99.90
24011;DHT22;12217;50.792;4.372;2024-03-25T03:24:22;7.70;99.90
24011;DHT22;12217;50.792;4.372;2024-03-25T03:26:48;7.70;99.90
24011;DHT22;12217;50.792;4.372;2024-03-25T03:29:14;7.80;99.90
24011;DHT22;12217;50.792;4.372;2024-03-25T03:31:39;7.90;99.90
24011;DHT22;12217;50.792;4.372;2024-03-25T03:34:05;7.90;99.90
24011;DHT22;12217;50.792;4.372;2024-03-25T03:36:31;8.00;99.90
24011;DHT22;12217;50.792;4.372;2024-03-25T03:38:57;8.00;99.90
24011;DHT22;12217;50.792;4.372;2024-03-25T03:41:22;8.10;99.90
24011;DHT22;12217;50.792;4.372;2024-03-25T03:43:48;8.00;99.90
24011;DHT22;12217;50.792;4.372;2024-03-25T03:46:14;8.00;99.90
24011;DHT22;12217;50.792;4.372;2024-03-25T03:48:39;8.10;99.90
24011;DHT22;12217;50.792;4.372;2024-03-25T03:51:05;8.00;99.90
24011;DHT22;12217;50.792;4.372;2024-03-25T03:53:32;8.00;99.90
24011;DHT22;12217;50.792;4.372;2024-03-25T03:56:00;8.00;99.90
24011;DHT22;12217;50.792;4.372;2024-03-25T03:58:27;8.00;99.90
24011;DHT22;12217;50.792;4.372;2024-03-25T04:00:53;8.00;99.90
24011;DHT22;12217;50.792;4.372;2024-03-25T04:03:19;7.90;99.90
24011;DHT22;12217;50.792;4.372;2024-03-25T04:05:45;7.90;99.90
24011;DHT22;12217;50.792;4.372;2024-03-25T04:08:11;7.90;99.90
24011;DHT22;12217;50.792;4.372;2024-03-25T04:10:37;8.00;99.90
24011;DHT22;12217;50.792;4.372;2024-03-25T04:13:04;8.00;99.90
24011;DHT22;12217;50.792;4.372;2024-03-25T04:15:32;7.90;99.90
24011;DHT22;12217;50.792;4.372;2024-03-25T04:17:58;8.00;99.90
24011;DHT22;12217;50.792;4.372;2024-03-25T04:20:24;8.10;99.90
24011;DHT22;12217;50.792;4.372;2024-03-25T04:22:49;8.00;99.90
24011;DHT22;12217;50.792;4.372;2024-03-25T04:25:15;7.90;99.90
24011;DHT22;12217;50.792;4.372;2024-03-25T04:27:41;7.80;99.90
24011;DHT22;12217;50.792;4.372;2024-03-25T04:30:08;7.90;99.90
24011;DHT22;12217;50.792;4.372;2024-03-25T04:32:34;7.90;99.90
24011;DHT22;12217;50.792;4.372;2024-03-25T04:35:00;7.90;99.90
24011;DHT22;12217;50.792;4.372;2024-03-25T04:37:27;8.00;99.90
24011;DHT22;12217;50.792;4.372;2024-03-25T04:39:53;7.90;99.90
24011;DHT22;12217;50.792;4.372;2024-03-25T04:42:19;7.90;99.90
24011;DHT22;12217;50.792;4.372;2024-03-25T04:44:45;7.90;99.90
24011;DHT22;12217;50.792;4.372;2024-03-25T04:47:11;7.90;99.90
24011;DHT22;12217;50.792;4.372;2024-03-25T04:49:36;7.90;99.90
24011;DHT22;12217;50.792;4.372;2024-03-25T04:52:06;7.90;99.90
24011;DHT22;12217;50.792;4.372;2024-03-25T04:54:32;7.90;99.90
24011;DHT22;12217;50.792;4.372;2024-03-25T04:56:57;7.90;99.90
24011;DHT22;12217;50.792;4.372;2024-03-25T04:59:23;7.90;99.90
24011;DHT22;12217;50.792;4.372;2024-03-25T05:01:48;7.90;99.90
24011;DHT22;12217;50.792;4.372;2024-03-25T05:04:14;7.90;99.90
24011;DHT22;12217;50.792;4.372;2024-03-25T05:06:40;8.00;99.90
24011;DHT22;12217;50.792;4.372;2024-03-25T05:09:05;7.90;99.90
24011;DHT22;12217;50.792;4.372;2024-03-25T05:11:33;7.90;99.90
24011;DHT22;12217;50.792;4.372;2024-03-25T05:13:59;7.90;99.90
24011;DHT22;12217;50.792;4.372;2024-03-25T05:16:25;7.90;99.90
24011;DHT22;12217;50.792;4.372;2024-03-25T05:18:50;7.80;99.90
24011;DHT22;12217;50.792;4.372;2024-03-25T05:21:16;7.80;99.90
24011;DHT22;12217;50.792;4.372;2024-03-25T05:23:42;7.70;99.90
24011;DHT22;12217;50.792;4.372;2024-03-25T05:26:07;7.70;99.90
24011;DHT22;12217;50.792;4.372;2024-03-25T05:28:33;7.70;99.90
24011;DHT22;12217;50.792;4.372;2024-03-25T05:31:08;7.60;99.90
24011;DHT22;12217;50.792;4.372;2024-03-25T05:33:34;7.60;99.90
24011;DHT22;12217;50.792;4.372;2024-03-25T05:36:00;7.60;99.90
24011;DHT22;12217;50.792;4.372;2024-03-25T05:38:29;7.50;99.90
24011;DHT22;12217;50.792;4.372;2024-03-25T05:40:55;7.50;99.90
24011;DHT22;12217;50.792;4.372;2024-03-25T05:43:21;7.50;99.90
24011;DHT22;12217;50.792;4.372;2024-03-25T05:45:53;7.50;99.90
24011;DHT22;12217;50.792;4.372;2024-03-25T05:48:24;7.40;99.90
24011;DHT22;12217;50.792;4.372;2024-03-25T05:51:00;7.40;99.90
24011;DHT22;12217;50.792;4.372;2024-03-25T05:53:27;7.50;99.90
24011;DHT22;12217;50.792;4.372;2024-03-25T05:55:53;7.50;99.90
24011;DHT22;12217;50.792;4.372;2024-03-25T05:58:18;7.50;99.90
24011;DHT22;12217;50.792;4.372;2024-03-25T06:00:47;7.50;99.90
24011;DHT22;12217;50.792;4.372;2024-03-25T06:03:13;7.50;99.90
24011;DHT22;12217;50.792;4.372;2024-03-25T06:05:38;7.60;99.90
24011;DHT22;12217;50.792;4.372;2024-03-25T06:08:05;7.60;99.90
24011;DHT22;12217;50.792;4.372;2024-03-25T06:10:35;7.60;99.90
24011;DHT22;12217;50.792;4.372;2024-03-25T06:13:01;7.60;99.90
24011;DHT22;12217;50.792;4.372;2024-03-25T06:15:27;7.80;99.90
24011;DHT22;12217;50.792;4.372;2024-03-25T06:17:52;7.80;99.90
24011;DHT22;12217;50.792;4.372;2024-03-25T06:20:18;7.80;99.90
24011;DHT22;12217;50.792;4.372;2024-03-25T06:22:43;8.00;99.90
24011;DHT22;12217;50.792;4.372;2024-03-25T06:25:09;8.00;99.90
24011;DHT22;12217;50.792;4.372;2024-03-25T06:27:34;8.10;99.90
24011;DHT22;12217;50.792;4.372;2024-03-25T06:30:00;8.10;99.90
24011;DHT22;12217;50.792;4.372;2024-03-25T06:32:45;8.20;99.90
24011;DHT22;12217;50.792;4.372;2024-03-25T06:35:29;8.20;99.90
24011;DHT22;12217;50.792;4.372;2024-03-25T06:37:54;8.20;99.90
24011;DHT22;12217;50.792;4.372;2024-03-25T06:40:20;8.20;99.90
24011;DHT22;12217;50.792;4.372;2024-03-25T06:42:47;8.20;99.90
24011;DHT22;12217;50.792;4.372;2024-03-25T06:45:13;8.40;99.90
24011;DHT22;12217;50.792;4.372;2024-03-25T06:47:41;8.50;99.90
24011;DHT22;12217;50.792;4.372;2024-03-25T06:50:07;8.60;99.90
24011;DHT22;12217;50.792;4.372;2024-03-25T06:52:33;8.60;99.90
24011;DHT22;12217;50.792;4.372;2024-03-25T06:54:58;8.70;99.90
24011;DHT22;12217;50.792;4.372;2024-03-25T06:57:24;8.60;99.90
24011;DHT22;12217;50.792;4.372;2024-03-25T06:59:49;8.50;99.90
24011;DHT22;12217;50.792;4.372;2024-03-25T07:02:15;8.20;99.90
24011;DHT22;12217;50.792;4.372;2024-03-25T07:04:41;8.10;99.90
24011;DHT22;12217;50.792;4.372;2024-03-25T07:07:06;8.00;99.90
24011;DHT22;12217;50.792;4.372;2024-03-25T07:09:34;7.90;99.90
24011;DHT22;12217;50.792;4.372;2024-03-25T07:11:59;7.90;99.90
24011;DHT22;12217;50.792;4.372;2024-03-25T07:14:25;8.00;99.90
24011;DHT22;12217;50.792;4.372;2024-03-25T07:16:51;8.00;99.90
24011;DHT22;12217;50.792;4.372;2024-03-25T07:19:16;8.20;99.90
24011;DHT22;12217;50.792;4.372;2024-03-25T07:21:42;8.30;99.90
24011;DHT22;12217;50.792;4.372;2024-03-25T07:24:07;8.40;99.90
24011;DHT22;12217;50.792;4.372;2024-03-25T07:26:33;8.30;99.90
24011;DHT22;12217;50.792;4.372;2024-03-25T07:28:58;8.30;99.90
24011;DHT22;12217;50.792;4.372;2024-03-25T07:31:24;8.30;99.90
24011;DHT22;12217;50.792;4.372;2024-03-25T07:33:51;8.30;99.90
24011;DHT22;12217;50.792;4.372;2024-03-25T07:36:16;8.30;99.90
24011;DHT22;12217;50.792;4.372;2024-03-25T07:38:44;8.40;99.90
24011;DHT22;12217;50.792;4.372;2024-03-25T07:41:09;8.50;99.90
24011;DHT22;12217;50.792;4.372;2024-03-25T07:43:36;8.90;99.90
24011;DHT22;12217;50.792;4.372;2024-03-25T07:46:02;9.00;99.90
24011;DHT22;12217;50.792;4.372;2024-03-25T07:48:27;9.20;99.90
24011;DHT22;12217;50.792;4.372;2024-03-25T07:50:53;9.20;99.90
24011;DHT22;12217;50.792;4.372;2024-03-25T07:53:19;9.20;99.90
24011;DHT22;12217;50.792;4.372;2024-03-25T07:55:44;9.20;99.90
24011;DHT22;12217;50.792;4.372;2024-03-25T07:58:10;9.20;99.90
24011;DHT22;12217;50.792;4.372;2024-03-25T08:00:35;9.10;99.90
24011;DHT22;12217;50.792;4.372;2024-03-25T08:03:01;9.20;99.90
24011;DHT22;12217;50.792;4.372;2024-03-25T08:05:29;9.20;99.90
24011;DHT22;12217;50.792;4.372;2024-03-25T08:07:55;9.20;99.90
24011;DHT22;12217;50.792;4.372;2024-03-25T08:10:20;9.20;99.90
24011;DHT22;12217;50.792;4.372;2024-03-25T08:12:46;9.20;99.90
24011;DHT22;12217;50.792;4.372;2024-03-25T08:15:12;9.10;99.90
24011;DHT22;12217;50.792;4.372;2024-03-25T08:17:39;9.00;99.90
24011;DHT22;12217;50.792;4.372;2024-03-25T08:20:05;8.70;99.90
24011;DHT22;12217;50.792;4.372;2024-03-25T08:22:30;8.70;99.90
24011;DHT22;12217;50.792;4.372;2024-03-25T08:24:56;8.70;99.90
24011;DHT22;12217;50.792;4.372;2024-03-25T08:27:22;8.60;99.90
24011;DHT22;12217;50.792;4.372;2024-03-25T08:29:47;8.70;99.90
24011;DHT22;12217;50.792;4.372;2024-03-25T08:32:14;8.90;99.90
24011;DHT22;12217;50.792;4.372;2024-03-25T08:34:40;9.00;99.90
24011;DHT22;12217;50.792;4.372;2024-03-25T08:37:05;9.20;99.90
24011;DHT22;12217;50.792;4.372;2024-03-25T08:39:31;9.20;99.90
24011;DHT22;12217;50.792;4.372;2024-03-25T08:41:56;9.50;99.90
24011;DHT22;12217;50.792;4.372;2024-03-25T08:44:22;9.60;99.90
24011;DHT22;12217;50.792;4.372;2024-03-25T08:46:48;9.60;99.90
24011;DHT22;12217;50.792;4.372;2024-03-25T08:49:13;9.70;99.90
24011;DHT22;12217;50.792;4.372;2024-03-25T08:51:39;9.90;99.90
24011;DHT22;12217;50.792;4.372;2024-03-25T08:54:04;10.20;99.90
24011;DHT22;12217;50.792;4.372;2024-03-25T08:56:30;10.30;99.90
24011;DHT22;12217;50.792;4.372;2024-03-25T08:58:56;10.20;99.90
24011;DHT22;12217;50.792;4.372;2024-03-25T09:01:23;10.30;99.90
24011;DHT22;12217;50.792;4.372;2024-03-25T09:03:50;10.40;99.90
24011;DHT22;12217;50.792;4.372;2024-03-25T09:06:15;10.50;99.90
24011;DHT22;12217;50.792;4.372;2024-03-25T09:08:41;10.60;99.90
24011;DHT22;12217;50.792;4.372;2024-03-25T09:11:25;10.80;99.90
24011;DHT22;12217;50.792;4.372;2024-03-25T09:13:52;10.80;99.90
24011;DHT22;12217;50.792;4.372;2024-03-25T09:16:18;10.70;99.90
24011;DHT22;12217;50.792;4.372;2024-03-25T09:18:44;10.60;99.90
24011;DHT22;12217;50.792;4.372;2024-03-25T09:21:10;10.60;99.90
24011;DHT22;12217;50.792;4.372;2024-03-25T09:23:35;10.70;99.90
24011;DHT22;12217;50.792;4.372;2024-03-25T09:26:01;10.70;99.90
24011;DHT22;12217;50.792;4.372;2024-03-25T09:28:27;10.90;99.90
24011;DHT22;12217;50.792;4.372;2024-03-25T09:30:52;11.00;99.90
24011;DHT22;12217;50.792;4.372;2024-03-25T09:33:18;11.00;99.90
24011;DHT22;12217;50.792;4.372;2024-03-25T09:35:44;11.20;99.90
24011;DHT22;12217;50.792;4.372;2024-03-25T09:38:10;11.10;99.90
24011;DHT22;12217;50.792;4.372;2024-03-25T09:40:39;11.20;99.90
24011;DHT22;12217;50.792;4.372;2024-03-25T09:43:10;11.50;99.90
24011;DHT22;12217;50.792;4.372;2024-03-25T09:45:38;11.60;99.90
24011;DHT22;12217;50.792;4.372;2024-03-25T09:48:06;11.60;99.90
24011;DHT22;12217;50.792;4.372;2024-03-25T09:50:32;11.40;99.90
24011;DHT22;12217;50.792;4.372;2024-03-25T09:52:58;11.40;99.90
24011;DHT22;12217;50.792;4.372;2024-03-25T09:55:24;11.30;99.90
24011;DHT22;12217;50.792;4.372;2024-03-25T09:57:50;11.20;99.90
24011;DHT22;12217;50.792;4.372;2024-03-25T10:00:17;11.30;99.90
24011;DHT22;12217;50.792;4.372;2024-03-25T10:02:44;11.50;99.90
24011;DHT22;12217;50.792;4.372;2024-03-25T10:05:09;11.80;99.90
24011;DHT22;12217;50.792;4.372;2024-03-25T10:07:35;11.90;99.90
24011;DHT22;12217;50.792;4.372;2024-03-25T10:10:05;11.80;99.90
24011;DHT22;12217;50.792;4.372;2024-03-25T10:12:31;12.10;99.90
24011;DHT22;12217;50.792;4.372;2024-03-25T10:14:57;12.50;99.90
24011;DHT22;12217;50.792;4.372;2024-03-25T10:17:23;12.70;99.90
24011;DHT22;12217;50.792;4.372;2024-03-25T10:19:48;12.40;99.90
24011;DHT22;12217;50.792;4.372;2024-03-25T10:22:14;12.30;99.90
24011;DHT22;12217;50.792;4.372;2024-03-25T10:24:44;12.40;99.90
24011;DHT22;12217;50.792;4.372;2024-03-25T10:27:17;12.70;99.90
24011;DHT22;12217;50.792;4.372;2024-03-25T10:29:43;12.40;99.90
24011;DHT22;12217;50.792;4.372;2024-03-25T10:32:09;12.30;99.90
24011;DHT22;12217;50.792;4.372;2024-03-25T10:34:35;12.50;99.90
24011;DHT22;12217;50.792;4.372;2024-03-25T10:37:01;12.50;99.90
24011;DHT22;12217;50.792;4.372;2024-03-25T10:39:31;12.80;99.90
24011;DHT22;12217;50.792;4.372;2024-03-25T10:41:58;12.70;99.90
24011;DHT22;12217;50.792;4.372;2024-03-25T10:44:26;12.70;99.90
24011;DHT22;12217;50.792;4.372;2024-03-25T10:47:00;12.90;99.90
24011;DHT22;12217;50.792;4.372;2024-03-25T10:52:14;12.90;99.90
24011;DHT22;12217;50.792;4.372;2024-03-25T10:54:41;13.00;99.90
24011;DHT22;12217;50.792;4.372;2024-03-25T10:57:09;12.90;99.90
24011;DHT22;12217;50.792;4.372;2024-03-25T10:59:37;13.10;99.90
24011;DHT22;12217;50.792;4.372;2024-03-25T11:02:07;13.20;99.90
24011;DHT22;12217;50.792;4.372;2024-03-25T11:04:33;13.10;99.90
24011;DHT22;12217;50.792;4.372;2024-03-25T11:07:13;13.50;99.90
24011;DHT22;12217;50.792;4.372;2024-03-25T11:09:39;13.50;99.90
24011;DHT22;12217;50.792;4.372;2024-03-25T11:12:06;13.60;99.90
24011;DHT22;12217;50.792;4.372;2024-03-25T11:14:33;13.80;99.90
24011;DHT22;12217;50.792;4.372;2024-03-25T11:16:59;14.20;99.90
24011;DHT22;12217;50.792;4.372;2024-03-25T11:19:27;14.30;99.90
24011;DHT22;12217;50.792;4.372;2024-03-25T11:21:53;14.30;99.90
24011;DHT22;12217;50.792;4.372;2024-03-25T11:24:28;14.20;99.90
24011;DHT22;12217;50.792;4.372;2024-03-25T11:26:55;14.30;99.90
24011;DHT22;12217;50.792;4.372;2024-03-25T11:29:20;14.30;99.90
24011;DHT22;12217;50.792;4.372;2024-03-25T11:31:49;14.20;99.90
24011;DHT22;12217;50.792;4.372;2024-03-25T11:34:15;14.60;99.90
24011;DHT22;12217;50.792;4.372;2024-03-25T11:36:41;14.90;99.90
24011;DHT22;12217;50.792;4.372;2024-03-25T11:39:06;15.00;99.90
24011;DHT22;12217;50.792;4.372;2024-03-25T11:41:42;15.00;99.90
24011;DHT22;12217;50.792;4.372;2024-03-25T11:44:16;15.00;99.90
24011;DHT22;12217;50.792;4.372;2024-03-25T11:46:50;15.20;99.90
24011;DHT22;12217;50.792;4.372;2024-03-25T11:49:16;15.40;99.90
24011;DHT22;12217;50.792;4.372;2024-03-25T11:51:44;15.50;99.90
24011;DHT22;12217;50.792;4.372;2024-03-25T11:54:18;15.90;99.90
24011;DHT22;12217;50.792;4.372;2024-03-25T11:56:47;15.80;99.90
24011;DHT22;12217;50.792;4.372;2024-03-25T12:01:54;15.70;99.90
24011;DHT22;12217;50.792;4.372;2024-03-25T12:04:35;15.60;99.90
24011;DHT22;12217;50.792;4.372;2024-03-25T12:07:04;15.50;99.90
24011;DHT22;12217;50.792;4.372;2024-03-25T12:09:29;15.30;99.90
24011;DHT22;12217;50.792;4.372;2024-03-25T12:12:14;15.00;99.40
24011;DHT22;12217;50.792;4.372;2024-03-25T12:14:40;14.60;99.90
24011;DHT22;12217;50.792;4.372;2024-03-25T12:17:06;14.70;99.90
24011;DHT22;12217;50.792;4.372;2024-03-25T12:19:31;14.90;99.90
24011;DHT22;12217;50.792;4.372;2024-03-25T12:22:00;14.70;99.00
24011;DHT22;12217;50.792;4.372;2024-03-25T12:24:26;15.00;99.90
24011;DHT22;12217;50.792;4.372;2024-03-25T12:26:52;15.30;99.30
24011;DHT22;12217;50.792;4.372;2024-03-25T12:29:18;15.60;99.40
24011;DHT22;12217;50.792;4.372;2024-03-25T12:31:54;16.00;94.80
24011;DHT22;12217;50.792;4.372;2024-03-25T12:34:19;16.60;96.60
24011;DHT22;12217;50.792;4.372;2024-03-25T12:36:45;17.00;93.60
24011;DHT22;12217;50.792;4.372;2024-03-25T12:39:17;17.20;91.40
24011;DHT22;12217;50.792;4.372;2024-03-25T12:41:52;16.80;90.10
24011;DHT22;12217;50.792;4.372;2024-03-25T12:44:24;16.70;93.40
24011;DHT22;12217;50.792;4.372;2024-03-25T12:46:50;17.00;93.20
24011;DHT22;12217;50.792;4.372;2024-03-25T12:49:16;16.90;91.00
24011;DHT22;12217;50.792;4.372;2024-03-25T12:51:42;16.50;88.90
24011;DHT22;12217;50.792;4.372;2024-03-25T12:54:07;16.70;88.90
24011;DHT22;12217;50.792;4.372;2024-03-25T12:56:33;17.20;90.20
24011;DHT22;12217;50.792;4.372;2024-03-25T12:58:58;17.50;83.70
24011;DHT22;12217;50.792;4.372;2024-03-25T13:01:24;17.10;79.00
24011;DHT22;12217;50.792;4.372;2024-03-25T13:03:50;16.00;84.70
24011;DHT22;12217;50.792;4.372;2024-03-25T13:06:15;15.60;85.00
24011;DHT22;12217;50.792;4.372;2024-03-25T13:08:41;15.70;84.00
24011;DHT22;12217;50.792;4.372;2024-03-25T13:11:09;15.60;85.30
24011;DHT22;12217;50.792;4.372;2024-03-25T13:13:34;15.30;85.90
24011;DHT22;12217;50.792;4.372;2024-03-25T13:16:00;15.60;88.50
24011;DHT22;12217;50.792;4.372;2024-03-25T13:18:28;15.80;87.70
24011;DHT22;12217;50.792;4.372;2024-03-25T13:20:58;15.90;85.40
24011;DHT22;12217;50.792;4.372;2024-03-25T13:23:26;16.10;87.00
24011;DHT22;12217;50.792;4.372;2024-03-25T13:25:51;16.30;81.60
24011;DHT22;12217;50.792;4.372;2024-03-25T13:28:17;16.60;84.50
24011;DHT22;12217;50.792;4.372;2024-03-25T13:30:43;16.70;80.80
24011;DHT22;12217;50.792;4.372;2024-03-25T13:33:08;15.90;82.60
24011;DHT22;12217;50.792;4.372;2024-03-25T13:35:34;15.50;82.90
24011;DHT22;12217;50.792;4.372;2024-03-25T13:38:00;15.70;85.50
24011;DHT22;12217;50.792;4.372;2024-03-25T13:40:26;15.80;83.00
24011;DHT22;12217;50.792;4.372;2024-03-25T13:42:51;15.80;81.40
24011;DHT22;12217;50.792;4.372;2024-03-25T13:45:17;16.00;82.90
24011;DHT22;12217;50.792;4.372;2024-03-25T13:47:43;16.00;82.80
24011;DHT22;12217;50.792;4.372;2024-03-25T13:50:08;16.20;85.20
24011;DHT22;12217;50.792;4.372;2024-03-25T13:52:34;16.40;83.40
24011;DHT22;12217;50.792;4.372;2024-03-25T13:55:01;16.90;83.50
24011;DHT22;12217;50.792;4.372;2024-03-25T13:57:26;17.50;83.50
24011;DHT22;12217;50.792;4.372;2024-03-25T13:59:52;17.80;82.40
24011;DHT22;12217;50.792;4.372;2024-03-25T14:02:17;17.90;77.70
24011;DHT22;12217;50.792;4.372;2024-03-25T14:04:43;17.40;79.90
24011;DHT22;12217;50.792;4.372;2024-03-25T14:07:09;17.40;79.70
24011;DHT22;12217;50.792;4.372;2024-03-25T14:09:35;17.40;81.00
24011;DHT22;12217;50.792;4.372;2024-03-25T14:12:00;17.30;80.80
24011;DHT22;12217;50.792;4.372;2024-03-25T14:14:26;17.40;81.00
24011;DHT22;12217;50.792;4.372;2024-03-25T14:16:51;17.60;79.50
24011;DHT22;12217;50.792;4.372;2024-03-25T14:19:17;17.60;78.80
24011;DHT22;12217;50.792;4.372;2024-03-25T14:21:43;17.70;77.00
24011;DHT22;12217;50.792;4.372;2024-03-25T14:24:09;17.90;76.20
24011;DHT22;12217;50.792;4.372;2024-03-25T14:26:35;17.60;73.70
24011;DHT22;12217;50.792;4.372;2024-03-25T14:29:01;17.40;75.70
24011;DHT22;12217;50.792;4.372;2024-03-25T14:31:27;17.40;78.40
24011;DHT22;12217;50.792;4.372;2024-03-25T14:33:54;17.60;76.50
24011;DHT22;12217;50.792;4.372;2024-03-25T14:36:20;17.00;77.50
24011;DHT22;12217;50.792;4.372;2024-03-25T14:38:46;17.10;79.60
24011;DHT22;12217;50.792;4.372;2024-03-25T14:41:12;17.10;76.40
24011;DHT22;12217;50.792;4.372;2024-03-25T14:43:37;17.00;77.70
24011;DHT22;12217;50.792;4.372;2024-03-25T14:46:04;17.10;79.20
24011;DHT22;12217;50.792;4.372;2024-03-25T14:48:29;17.20;77.00
24011;DHT22;12217;50.792;4.372;2024-03-25T14:50:55;17.30;76.20
24011;DHT22;12217;50.792;4.372;2024-03-25T14:53:21;17.30;75.70
24011;DHT22;12217;50.792;4.372;2024-03-25T14:55:46;17.10;75.40
24011;DHT22;12217;50.792;4.372;2024-03-25T14:58:12;16.80;75.80
24011;DHT22;12217;50.792;4.372;2024-03-25T15:00:38;16.70;75.90
24011;DHT22;12217;50.792;4.372;2024-03-25T15:03:04;16.80;77.60
24011;DHT22;12217;50.792;4.372;2024-03-25T15:05:29;17.00;75.80
24011;DHT22;12217;50.792;4.372;2024-03-25T15:07:55;17.10;75.00
24011;DHT22;12217;50.792;4.372;2024-03-25T15:10:21;17.20;76.00
24011;DHT22;12217;50.792;4.372;2024-03-25T15:12:46;17.20;75.60
24011;DHT22;12217;50.792;4.372;2024-03-25T15:15:12;16.70;73.70
24011;DHT22;12217;50.792;4.372;2024-03-25T15:17:38;16.60;74.30
24011;DHT22;12217;50.792;4.372;2024-03-25T15:20:04;16.70;76.60
24011;DHT22;12217;50.792;4.372;2024-03-25T15:22:31;16.70;74.90
24011;DHT22;12217;50.792;4.372;2024-03-25T15:24:56;16.30;73.70
24011;DHT22;12217;50.792;4.372;2024-03-25T15:27:22;16.20;75.40
24011;DHT22;12217;50.792;4.372;2024-03-25T15:29:48;15.90;74.30
24011;DHT22;12217;50.792;4.372;2024-03-25T15:32:14;15.80;75.90
24011;DHT22;12217;50.792;4.372;2024-03-25T15:34:39;15.90;76.40
24011;DHT22;12217;50.792;4.372;2024-03-25T15:37:05;15.90;76.50
24011;DHT22;12217;50.792;4.372;2024-03-25T15:39:31;16.00;76.40
24011;DHT22;12217;50.792;4.372;2024-03-25T15:41:56;16.00;77.20